sensor_id;sensor_type;location;lat;lon;timestamp;P1;durP1;ratioP1;P2;durP2;ratioP2
22711;SDS011;11523;50.390;8.072;2023-01-15T03:36:18;0.85;;;0.43;;
22711;SDS011;11523;50.390;8.072;2023-01-15T03:38:50;0.47;;;0.47;;
22711;SDS011;11523;50.390;8.072;2023-01-15T03:41:18;0.63;;;0.50;;
22711;SDS011;11523;50.390;8.072;2023-01-15T03:54:00;0.80;;;0.60;;
22711;SDS011;11523;50.390;8.072;2023-01-15T03:56:33;1.55;;;0.60;;
22711;SDS011;11523;50.390;8.072;2023-01-15T03:59:04;0.50;;;0.40;;
22711;SDS011;11523;50.390;8.072;2023-01-15T04:01:35;0.70;;;0.40;;
22711;SDS011;11523;50.390;8.072;2023-01-15T04:04:02;0.28;;;0.28;;
22711;SDS011;11523;50.390;8.072;2023-01-15T04:06:29;0.90;;;0.55;;
22711;SDS011;11523;50.390;8.072;2023-01-15T04:08:56;1.90;;;0.40;;
22711;SDS011;11523;50.390;8.072;2023-01-15T04:11:23;0.30;;;0.30;;
22711;SDS011;11523;50.390;8.072;2023-01-15T04:13:49;1.10;;;0.30;;
22711;SDS011;11523;50.390;8.072;2023-01-15T04:16:16;0.88;;;0.47;;
22711;SDS011;11523;50.390;8.072;2023-01-15T04:18:44;0.75;;;0.30;;
22711;SDS011;11523;50.390;8.072;2023-01-15T04:21:10;1.35;;;0.50;;
22711;SDS011;11523;50.390;8.072;2023-01-15T04:23:36;1.30;;;0.47;;
22711;SDS011;11523;50.390;8.072;2023-01-15T04:26:01;1.67;;;0.47;;
22711;SDS011;11523;50.390;8.072;2023-01-15T04:28:27;1.63;;;0.50;;
22711;SDS011;11523;50.390;8.072;2023-01-15T04:30:55;2.13;;;0.32;;
22711;SDS011;11523;50.390;8.072;2023-01-15T04:33:21;0.40;;;0.40;;
22711;SDS011;11523;50.390;8.072;2023-01-15T04:35:47;0.30;;;0.20;;
22711;SDS011;11523;50.390;8.072;2023-01-15T04:38:13;1.48;;;0.60;;
22711;SDS011;11523;50.390;8.072;2023-01-15T04:40:39;0.55;;;0.40;;
22711;SDS011;11523;50.390;8.072;2023-01-15T04:43:23;0.63;;;0.35;;
22711;SDS011;11523;50.390;8.072;2023-01-15T04:46:08;0.82;;;0.45;;
22711;SDS011;11523;50.390;8.072;2023-01-15T04:48:34;1.95;;;0.50;;
22711;SDS011;11523;50.390;8.072;2023-01-15T04:51:03;1.35;;;0.40;;
22711;SDS011;11523;50.390;8.072;2023-01-15T04:53:29;1.42;;;0.50;;
22711;SDS011;11523;50.390;8.072;2023-01-15T04:55:59;0.85;;;0.43;;
22711;SDS011;11523;50.390;8.072;2023-01-15T04:58:26;0.95;;;0.30;;
22711;SDS011;11523;50.390;8.072;2023-01-15T05:00:51;2.35;;;0.60;;
22711;SDS011;11523;50.390;8.072;2023-01-15T05:03:17;1.85;;;0.40;;
22711;SDS011;11523;50.390;8.072;2023-01-15T05:05:43;1.63;;;0.40;;
22711;SDS011;11523;50.390;8.072;2023-01-15T05:08:09;0.47;;;0.32;;
22711;SDS011;11523;50.390;8.072;2023-01-15T05:10:35;0.75;;;0.50;;
22711;SDS011;11523;50.390;8.072;2023-01-15T05:13:01;0.45;;;0.40;;
22711;SDS011;11523;50.390;8.072;2023-01-15T05:15:27;1.85;;;0.52;;
22711;SDS011;11523;50.390;8.072;2023-01-15T05:17:53;1.70;;;0.45;;
22711;SDS011;11523;50.390;8.072;2023-01-15T05:20:19;1.58;;;0.40;;
22711;SDS011;11523;50.390;8.072;2023-01-15T05:22:45;1.23;;;0.40;;
22711;SDS011;11523;50.390;8.072;2023-01-15T05:25:11;0.40;;;0.40;;
22711;SDS011;11523;50.390;8.072;2023-01-15T05:27:37;1.17;;;0.63;;
22711;SDS011;11523;50.390;8.072;2023-01-15T05:30:03;0.52;;;0.30;;
22711;SDS011;11523;50.390;8.072;2023-01-15T05:32:29;0.73;;;0.30;;
22711;SDS011;11523;50.390;8.072;2023-01-15T05:34:55;1.23;;;0.55;;
22711;SDS011;11523;50.390;8.072;2023-01-15T05:37:21;0.80;;;0.50;;
22711;SDS011;11523;50.390;8.072;2023-01-15T05:39:47;1.08;;;0.50;;
22711;SDS011;11523;50.390;8.072;2023-01-15T05:42:13;2.42;;;0.50;;
22711;SDS011;11523;50.390;8.072;2023-01-15T05:44:39;2.40;;;0.60;;
22711;SDS011;11523;50.390;8.072;2023-01-15T05:47:05;1.52;;;0.43;;
22711;SDS011;11523;50.390;8.072;2023-01-15T05:49:32;0.75;;;0.43;;
22711;SDS011;11523;50.390;8.072;2023-01-15T05:51:58;1.25;;;0.45;;
22711;SDS011;11523;50.390;8.072;2023-01-15T05:54:26;1.13;;;0.50;;
22711;SDS011;11523;50.390;8.072;2023-01-15T05:56:52;2.47;;;0.75;;
22711;SDS011;11523;50.390;8.072;2023-01-15T05:59:19;0.30;;;0.30;;
22711;SDS011;11523;50.390;8.072;2023-01-15T06:01:45;0.40;;;0.40;;
22711;SDS011;11523;50.390;8.072;2023-01-15T06:04:12;0.43;;;0.43;;
22711;SDS011;11523;50.390;8.072;2023-01-15T06:06:38;1.05;;;0.50;;
22711;SDS011;11523;50.390;8.072;2023-01-15T06:09:04;1.35;;;0.50;;
22711;SDS011;11523;50.390;8.072;2023-01-15T06:11:30;0.88;;;0.43;;
22711;SDS011;11523;50.390;8.072;2023-01-15T06:13:56;1.20;;;0.50;;
22711;SDS011;11523;50.390;8.072;2023-01-15T06:16:22;1.83;;;0.60;;
22711;SDS011;11523;50.390;8.072;2023-01-15T06:18:48;2.35;;;0.52;;
22711;SDS011;11523;50.390;8.072;2023-01-15T06:21:15;6.57;;;0.60;;
22711;SDS011;11523;50.390;8.072;2023-01-15T06:23:41;1.00;;;0.47;;
22711;SDS011;11523;50.390;8.072;2023-01-15T06:26:11;1.20;;;0.60;;
22711;SDS011;11523;50.390;8.072;2023-01-15T06:28:38;2.83;;;0.70;;
22711;SDS011;11523;50.390;8.072;2023-01-15T06:31:07;3.53;;;0.70;;
22711;SDS011;11523;50.390;8.072;2023-01-15T06:33:34;2.05;;;1.00;;
22711;SDS011;11523;50.390;8.072;2023-01-15T06:36:04;1.67;;;0.50;;
22711;SDS011;11523;50.390;8.072;2023-01-15T06:38:30;2.13;;;0.50;;
22711;SDS011;11523;50.390;8.072;2023-01-15T06:41:00;1.50;;;0.57;;
22711;SDS011;11523;50.390;8.072;2023-01-15T06:43:26;1.33;;;0.55;;
22711;SDS011;11523;50.390;8.072;2023-01-15T06:46:11;0.50;;;0.50;;
22711;SDS011;11523;50.390;8.072;2023-01-15T06:48:55;0.80;;;0.35;;
22711;SDS011;11523;50.390;8.072;2023-01-15T06:51:22;1.75;;;0.57;;
22711;SDS011;11523;50.390;8.072;2023-01-15T06:53:48;3.03;;;0.50;;
22711;SDS011;11523;50.390;8.072;2023-01-15T06:56:14;0.93;;;0.70;;
22711;SDS011;11523;50.390;8.072;2023-01-15T06:58:40;1.05;;;0.50;;
22711;SDS011;11523;50.390;8.072;2023-01-15T07:01:10;1.17;;;0.50;;
22711;SDS011;11523;50.390;8.072;2023-01-15T07:03:36;1.25;;;0.55;;
22711;SDS011;11523;50.390;8.072;2023-01-15T07:06:05;0.52;;;0.50;;
22711;SDS011;11523;50.390;8.072;2023-01-15T07:08:32;1.23;;;0.60;;
22711;SDS011;11523;50.390;8.072;2023-01-15T07:11:01;1.08;;;0.50;;
22711;SDS011;11523;50.390;8.072;2023-01-15T07:13:28;0.88;;;0.40;;
22711;SDS011;11523;50.390;8.072;2023-01-15T07:15:54;0.43;;;0.43;;
22711;SDS011;11523;50.390;8.072;2023-01-15T07:18:20;1.67;;;0.93;;
22711;SDS011;11523;50.390;8.072;2023-01-15T07:20:45;2.80;;;0.60;;
22711;SDS011;11523;50.390;8.072;2023-01-15T07:23:11;0.70;;;0.60;;
22711;SDS011;11523;50.390;8.072;2023-01-15T07:25:37;0.55;;;0.55;;
22711;SDS011;11523;50.390;8.072;2023-01-15T07:28:03;1.10;;;0.70;;
22711;SDS011;11523;50.390;8.072;2023-01-15T07:30:29;1.35;;;0.80;;
22711;SDS011;11523;50.390;8.072;2023-01-15T07:32:55;1.17;;;0.70;;
22711;SDS011;11523;50.390;8.072;2023-01-15T07:35:21;1.50;;;0.75;;
22711;SDS011;11523;50.390;8.072;2023-01-15T07:37:50;2.28;;;0.60;;
22711;SDS011;11523;50.390;8.072;2023-01-15T07:40:16;0.45;;;0.30;;
22711;SDS011;11523;50.390;8.072;2023-01-15T07:42:42;0.35;;;0.35;;
22711;SDS011;11523;50.390;8.072;2023-01-15T07:45:27;0.52;;;0.50;;
22711;SDS011;11523;50.390;8.072;2023-01-15T07:48:31;0.40;;;0.40;;
22711;SDS011;11523;50.390;8.072;2023-01-15T07:51:16;0.30;;;0.30;;
22711;SDS011;11523;50.390;8.072;2023-01-15T07:53:42;0.82;;;0.30;;
22711;SDS011;11523;50.390;8.072;2023-01-15T07:56:08;0.93;;;0.47;;
22711;SDS011;11523;50.390;8.072;2023-01-15T07:58:34;0.70;;;0.40;;
22711;SDS011;11523;50.390;8.072;2023-01-15T08:01:00;0.57;;;0.50;;
22711;SDS011;11523;50.390;8.072;2023-01-15T08:03:25;1.08;;;0.68;;
22711;SDS011;11523;50.390;8.072;2023-01-15T08:05:51;1.73;;;0.88;;
22711;SDS011;11523;50.390;8.072;2023-01-15T08:08:17;1.17;;;0.70;;
22711;SDS011;11523;50.390;8.072;2023-01-15T08:10:43;0.65;;;0.65;;
22711;SDS011;11523;50.390;8.072;2023-01-15T08:13:28;0.50;;;0.50;;
22711;SDS011;11523;50.390;8.072;2023-01-15T08:18:39;0.90;;;0.60;;
22711;SDS011;11523;50.390;8.072;2023-01-15T08:21:05;0.95;;;0.40;;
22711;SDS011;11523;50.390;8.072;2023-01-15T08:23:31;0.45;;;0.45;;
22711;SDS011;11523;50.390;8.072;2023-01-15T08:26:00;0.60;;;0.60;;
22711;SDS011;11523;50.390;8.072;2023-01-15T08:28:26;0.68;;;0.60;;
22711;SDS011;11523;50.390;8.072;2023-01-15T08:30:52;1.02;;;0.60;;
22711;SDS011;11523;50.390;8.072;2023-01-15T08:33:18;4.50;;;1.00;;
22711;SDS011;11523;50.390;8.072;2023-01-15T08:35:44;0.80;;;0.50;;
22711;SDS011;11523;50.390;8.072;2023-01-15T08:38:10;0.80;;;0.70;;
22711;SDS011;11523;50.390;8.072;2023-01-15T08:40:36;0.70;;;0.70;;
22711;SDS011;11523;50.390;8.072;2023-01-15T08:43:22;1.95;;;1.30;;
22711;SDS011;11523;50.390;8.072;2023-01-15T08:45:48;1.60;;;1.10;;
22711;SDS011;11523;50.390;8.072;2023-01-15T08:48:14;2.85;;;0.80;;
22711;SDS011;11523;50.390;8.072;2023-01-15T08:50:39;1.45;;;0.88;;
22711;SDS011;11523;50.390;8.072;2023-01-15T08:53:05;0.93;;;0.80;;
22711;SDS011;11523;50.390;8.072;2023-01-15T08:55:31;1.33;;;0.70;;
22711;SDS011;11523;50.390;8.072;2023-01-15T08:57:57;2.25;;;0.70;;
22711;SDS011;11523;50.390;8.072;2023-01-15T09:00:23;0.50;;;0.50;;
22711;SDS011;11523;50.390;8.072;2023-01-15T09:02:49;1.05;;;0.65;;
22711;SDS011;11523;50.390;8.072;2023-01-15T09:05:15;0.93;;;0.38;;
22711;SDS011;11523;50.390;8.072;2023-01-15T09:07:41;0.57;;;0.57;;
22711;SDS011;11523;50.390;8.072;2023-01-15T09:10:07;0.60;;;0.60;;
22711;SDS011;11523;50.390;8.072;2023-01-15T09:12:33;0.70;;;0.55;;
22711;SDS011;11523;50.390;8.072;2023-01-15T09:14:59;0.38;;;0.38;;
22711;SDS011;11523;50.390;8.072;2023-01-15T09:17:25;1.05;;;0.50;;
22711;SDS011;11523;50.390;8.072;2023-01-15T09:19:58;0.30;;;0.30;;
22711;SDS011;11523;50.390;8.072;2023-01-15T09:22:24;1.20;;;0.50;;
22711;SDS011;11523;50.390;8.072;2023-01-15T09:24:53;2.35;;;0.50;;
22711;SDS011;11523;50.390;8.072;2023-01-15T09:27:19;1.38;;;0.60;;
22711;SDS011;11523;50.390;8.072;2023-01-15T09:29:52;2.30;;;0.82;;
22711;SDS011;11523;50.390;8.072;2023-01-15T09:32:18;1.85;;;0.80;;
22711;SDS011;11523;50.390;8.072;2023-01-15T09:34:44;1.85;;;0.60;;
22711;SDS011;11523;50.390;8.072;2023-01-15T09:37:10;0.88;;;0.55;;
22711;SDS011;11523;50.390;8.072;2023-01-15T09:39:36;0.93;;;0.40;;
22711;SDS011;11523;50.390;8.072;2023-01-15T09:50:08;1.00;;;0.60;;
22711;SDS011;11523;50.390;8.072;2023-01-15T09:52:52;0.57;;;0.50;;
22711;SDS011;11523;50.390;8.072;2023-01-15T09:55:26;0.95;;;0.68;;
22711;SDS011;11523;50.390;8.072;2023-01-15T09:57:54;0.98;;;0.40;;
22711;SDS011;11523;50.390;8.072;2023-01-15T10:00:22;0.57;;;0.50;;
22711;SDS011;11523;50.390;8.072;2023-01-15T10:02:58;1.80;;;0.68;;
22711;SDS011;11523;50.390;8.072;2023-01-15T10:05:28;2.03;;;0.60;;
22711;SDS011;11523;50.390;8.072;2023-01-15T10:08:10;2.13;;;0.70;;
22711;SDS011;11523;50.390;8.072;2023-01-15T10:10:40;1.60;;;0.73;;
22711;SDS011;11523;50.390;8.072;2023-01-15T10:13:15;3.28;;;0.80;;
22711;SDS011;11523;50.390;8.072;2023-01-15T10:15:44;2.05;;;0.60;;
22711;SDS011;11523;50.390;8.072;2023-01-15T10:18:20;1.73;;;0.65;;
22711;SDS011;11523;50.390;8.072;2023-01-15T10:20:48;1.98;;;0.80;;
22711;SDS011;11523;50.390;8.072;2023-01-15T10:26:10;3.80;;;0.80;;
22711;SDS011;11523;50.390;8.072;2023-01-15T10:31:16;2.47;;;0.77;;
22711;SDS011;11523;50.390;8.072;2023-01-15T10:36:41;3.58;;;1.05;;
22711;SDS011;11523;50.390;8.072;2023-01-15T10:39:10;2.53;;;1.17;;
22711;SDS011;11523;50.390;8.072;2023-01-15T10:41:58;7.25;;;1.10;;
22711;SDS011;11523;50.390;8.072;2023-01-15T10:47:22;0.63;;;0.57;;
22711;SDS011;11523;50.390;8.072;2023-01-15T10:49:50;4.63;;;1.38;;
22711;SDS011;11523;50.390;8.072;2023-01-15T10:52:25;1.88;;;0.70;;
22711;SDS011;11523;50.390;8.072;2023-01-15T10:54:54;1.15;;;0.65;;
22711;SDS011;11523;50.390;8.072;2023-01-15T10:57:43;2.88;;;0.75;;
22711;SDS011;11523;50.390;8.072;2023-01-15T11:00:13;1.48;;;0.85;;
22711;SDS011;11523;50.390;8.072;2023-01-15T11:02:41;1.13;;;0.60;;
22711;SDS011;11523;50.390;8.072;2023-01-15T11:05:11;1.95;;;0.70;;
22711;SDS011;11523;50.390;8.072;2023-01-15T11:07:49;2.90;;;0.93;;
22711;SDS011;11523;50.390;8.072;2023-01-15T11:10:16;2.72;;;1.00;;
22711;SDS011;11523;50.390;8.072;2023-01-15T11:15:34;4.30;;;1.08;;
22711;SDS011;11523;50.390;8.072;2023-01-15T11:18:24;1.48;;;0.88;;
22711;SDS011;11523;50.390;8.072;2023-01-15T11:21:14;4.45;;;1.25;;
22711;SDS011;11523;50.390;8.072;2023-01-15T11:23:41;1.10;;;0.63;;
22711;SDS011;11523;50.390;8.072;2023-01-15T11:26:07;2.35;;;0.95;;
22711;SDS011;11523;50.390;8.072;2023-01-15T11:28:38;2.72;;;1.10;;
22711;SDS011;11523;50.390;8.072;2023-01-15T11:31:06;2.58;;;0.85;;
22711;SDS011;11523;50.390;8.072;2023-01-15T11:33:32;5.70;;;1.35;;
22711;SDS011;11523;50.390;8.072;2023-01-15T11:36:06;5.30;;;0.88;;
22711;SDS011;11523;50.390;8.072;2023-01-15T11:38:43;1.85;;;0.50;;
22711;SDS011;11523;50.390;8.072;2023-01-15T11:41:20;1.83;;;0.85;;
22711;SDS011;11523;50.390;8.072;2023-01-15T11:43:54;4.28;;;1.33;;
22711;SDS011;11523;50.390;8.072;2023-01-15T11:46:39;2.53;;;1.25;;
22711;SDS011;11523;50.390;8.072;2023-01-15T11:49:24;2.60;;;1.17;;
22711;SDS011;11523;50.390;8.072;2023-01-15T11:54:38;3.65;;;1.13;;
22711;SDS011;11523;50.390;8.072;2023-01-15T11:57:05;2.17;;;0.65;;
22711;SDS011;11523;50.390;8.072;2023-01-15T11:59:31;4.88;;;0.98;;
22711;SDS011;11523;50.390;8.072;2023-01-15T12:01:58;3.03;;;0.93;;
22711;SDS011;11523;50.390;8.072;2023-01-15T12:04:48;4.18;;;0.75;;
22711;SDS011;11523;50.390;8.072;2023-01-15T12:07:16;5.43;;;1.20;;
22711;SDS011;11523;50.390;8.072;2023-01-15T12:12:14;5.88;;;1.05;;
22711;SDS011;11523;50.390;8.072;2023-01-15T12:24:50;4.25;;;1.10;;
22711;SDS011;11523;50.390;8.072;2023-01-15T12:29:58;2.92;;;0.80;;
22711;SDS011;11523;50.390;8.072;2023-01-15T12:32:28;3.00;;;0.88;;
22711;SDS011;11523;50.390;8.072;2023-01-15T12:35:01;1.33;;;0.73;;
22711;SDS011;11523;50.390;8.072;2023-01-15T12:37:30;1.38;;;0.93;;
22711;SDS011;11523;50.390;8.072;2023-01-15T12:45:33;0.80;;;0.60;;
22711;SDS011;11523;50.390;8.072;2023-01-15T12:52:58;2.25;;;1.02;;
22711;SDS011;11523;50.390;8.072;2023-01-15T12:55:27;2.33;;;0.90;;
22711;SDS011;11523;50.390;8.072;2023-01-15T12:57:55;1.40;;;0.80;;
22711;SDS011;11523;50.390;8.072;2023-01-15T13:00:34;0.98;;;0.68;;
22711;SDS011;11523;50.390;8.072;2023-01-15T13:03:08;2.67;;;0.90;;
22711;SDS011;11523;50.390;8.072;2023-01-15T13:05:44;0.47;;;0.43;;
22711;SDS011;11523;50.390;8.072;2023-01-15T13:08:14;2.33;;;1.00;;
22711;SDS011;11523;50.390;8.072;2023-01-15T13:10:44;4.43;;;0.60;;
22711;SDS011;11523;50.390;8.072;2023-01-15T13:13:13;1.95;;;0.93;;
22711;SDS011;11523;50.390;8.072;2023-01-15T13:15:41;4.13;;;0.88;;
22711;SDS011;11523;50.390;8.072;2023-01-15T13:18:13;2.25;;;0.98;;
22711;SDS011;11523;50.390;8.072;2023-01-15T13:23:34;1.98;;;0.80;;
22711;SDS011;11523;50.390;8.072;2023-01-15T13:26:03;3.75;;;1.13;;
22711;SDS011;11523;50.390;8.072;2023-01-15T13:33:43;2.75;;;0.65;;
22711;SDS011;11523;50.390;8.072;2023-01-15T13:36:16;2.05;;;0.80;;
22711;SDS011;11523;50.390;8.072;2023-01-15T13:38:44;4.03;;;1.50;;
22711;SDS011;11523;50.390;8.072;2023-01-15T13:41:15;2.30;;;1.10;;
22711;SDS011;11523;50.390;8.072;2023-01-15T13:44:03;6.25;;;1.20;;
22711;SDS011;11523;50.390;8.072;2023-01-15T13:46:29;2.75;;;1.10;;
22711;SDS011;11523;50.390;8.072;2023-01-15T13:48:55;2.60;;;0.90;;
22711;SDS011;11523;50.390;8.072;2023-01-15T13:51:24;1.85;;;1.00;;
22711;SDS011;11523;50.390;8.072;2023-01-15T13:53:51;5.40;;;1.13;;
22711;SDS011;11523;50.390;8.072;2023-01-15T13:56:30;2.60;;;1.00;;
22711;SDS011;11523;50.390;8.072;2023-01-15T13:59:00;2.50;;;1.00;;
22711;SDS011;11523;50.390;8.072;2023-01-15T14:01:32;2.75;;;0.77;;
22711;SDS011;11523;50.390;8.072;2023-01-15T14:04:02;4.22;;;0.93;;
22711;SDS011;11523;50.390;8.072;2023-01-15T14:09:04;4.40;;;0.95;;
22711;SDS011;11523;50.390;8.072;2023-01-15T14:11:37;3.38;;;1.27;;
22711;SDS011;11523;50.390;8.072;2023-01-15T14:14:16;4.22;;;1.40;;
22711;SDS011;11523;50.390;8.072;2023-01-15T14:19:25;4.13;;;0.98;;
22711;SDS011;11523;50.390;8.072;2023-01-15T14:24:42;4.25;;;1.20;;
22711;SDS011;11523;50.390;8.072;2023-01-15T14:29:47;3.22;;;1.10;;
22711;SDS011;11523;50.390;8.072;2023-01-15T14:32:19;9.07;;;1.08;;
22711;SDS011;11523;50.390;8.072;2023-01-15T14:34:55;3.28;;;1.08;;
22711;SDS011;11523;50.390;8.072;2023-01-15T14:37:38;3.95;;;1.20;;
22711;SDS011;11523;50.390;8.072;2023-01-15T14:40:16;2.88;;;1.02;;
22711;SDS011;11523;50.390;8.072;2023-01-15T14:42:42;6.13;;;1.15;;
22711;SDS011;11523;50.390;8.072;2023-01-15T14:45:35;4.90;;;1.10;;
22711;SDS011;11523;50.390;8.072;2023-01-15T14:48:03;3.45;;;1.20;;
22711;SDS011;11523;50.390;8.072;2023-01-15T14:50:31;4.43;;;1.45;;
22711;SDS011;11523;50.390;8.072;2023-01-15T14:53:05;2.50;;;0.80;;
22711;SDS011;11523;50.390;8.072;2023-01-15T14:58:15;1.95;;;0.93;;
22711;SDS011;11523;50.390;8.072;2023-01-15T15:00:43;7.45;;;1.30;;
22711;SDS011;11523;50.390;8.072;2023-01-15T15:03:15;7.38;;;1.10;;
22711;SDS011;11523;50.390;8.072;2023-01-15T15:05:42;5.13;;;1.10;;
22711;SDS011;11523;50.390;8.072;2023-01-15T15:08:10;3.33;;;1.00;;
22711;SDS011;11523;50.390;8.072;2023-01-15T15:10:38;5.35;;;1.60;;
22711;SDS011;11523;50.390;8.072;2023-01-15T15:21:19;3.38;;;1.13;;
22711;SDS011;11523;50.390;8.072;2023-01-15T15:26:32;3.88;;;0.98;;
22711;SDS011;11523;50.390;8.072;2023-01-15T15:28:59;4.72;;;1.45;;
22711;SDS011;11523;50.390;8.072;2023-01-15T15:31:26;6.53;;;1.70;;
22711;SDS011;11523;50.390;8.072;2023-01-15T15:33:53;3.03;;;1.10;;
22711;SDS011;11523;50.390;8.072;2023-01-15T15:36:20;1.05;;;0.73;;
22711;SDS011;11523;50.390;8.072;2023-01-15T15:38:51;3.95;;;1.02;;
22711;SDS011;11523;50.390;8.072;2023-01-15T15:41:17;3.70;;;1.33;;
22711;SDS011;11523;50.390;8.072;2023-01-15T15:44:03;4.40;;;1.20;;
22711;SDS011;11523;50.390;8.072;2023-01-15T15:46:50;4.68;;;1.65;;
22711;SDS011;11523;50.390;8.072;2023-01-15T15:49:38;3.72;;;1.40;;
22711;SDS011;11523;50.390;8.072;2023-01-15T15:52:11;4.63;;;1.45;;
22711;SDS011;11523;50.390;8.072;2023-01-15T15:54:39;2.70;;;1.13;;
22711;SDS011;11523;50.390;8.072;2023-01-15T15:57:06;3.33;;;1.00;;
22711;SDS011;11523;50.390;8.072;2023-01-15T15:59:41;4.22;;;1.08;;
22711;SDS011;11523;50.390;8.072;2023-01-15T16:02:13;5.88;;;1.60;;
22711;SDS011;11523;50.390;8.072;2023-01-15T16:04:44;4.78;;;1.70;;
22711;SDS011;11523;50.390;8.072;2023-01-15T16:07:11;2.45;;;1.25;;
22711;SDS011;11523;50.390;8.072;2023-01-15T16:09:37;4.82;;;1.50;;
22711;SDS011;11523;50.390;8.072;2023-01-15T16:12:06;3.28;;;1.20;;
22711;SDS011;11523;50.390;8.072;2023-01-15T16:14:33;2.33;;;0.80;;
22711;SDS011;11523;50.390;8.072;2023-01-15T16:17:01;4.03;;;1.20;;
22711;SDS011;11523;50.390;8.072;2023-01-15T16:19:27;4.43;;;1.08;;
22711;SDS011;11523;50.390;8.072;2023-01-15T16:21:53;4.60;;;1.40;;
22711;SDS011;11523;50.390;8.072;2023-01-15T16:24:26;1.42;;;0.80;;
22711;SDS011;11523;50.390;8.072;2023-01-15T16:27:00;5.05;;;1.20;;
22711;SDS011;11523;50.390;8.072;2023-01-15T16:29:29;2.33;;;0.82;;
22711;SDS011;11523;50.390;8.072;2023-01-15T16:31:56;3.80;;;1.30;;
22711;SDS011;11523;50.390;8.072;2023-01-15T16:34:30;4.40;;;1.15;;
22711;SDS011;11523;50.390;8.072;2023-01-15T16:36:57;4.23;;;1.37;;
22711;SDS011;11523;50.390;8.072;2023-01-15T16:39:42;3.90;;;1.20;;
22711;SDS011;11523;50.390;8.072;2023-01-15T16:44:41;3.58;;;1.08;;
22711;SDS011;11523;50.390;8.072;2023-01-15T16:47:09;2.10;;;1.05;;
22711;SDS011;11523;50.390;8.072;2023-01-15T16:54:52;4.88;;;1.40;;
22711;SDS011;11523;50.390;8.072;2023-01-15T16:57:25;3.22;;;1.25;;
22711;SDS011;11523;50.390;8.072;2023-01-15T16:59:55;3.97;;;1.33;;
22711;SDS011;11523;50.390;8.072;2023-01-15T17:02:21;3.47;;;1.40;;
22711;SDS011;11523;50.390;8.072;2023-01-15T17:04:47;2.95;;;1.40;;
22711;SDS011;11523;50.390;8.072;2023-01-15T17:07:17;3.88;;;1.55;;
22711;SDS011;11523;50.390;8.072;2023-01-15T17:09:45;6.97;;;1.20;;
22711;SDS011;11523;50.390;8.072;2023-01-15T17:12:23;2.88;;;1.23;;
22711;SDS011;11523;50.390;8.072;2023-01-15T17:14:50;4.80;;;1.30;;
22711;SDS011;11523;50.390;8.072;2023-01-15T17:17:22;4.38;;;1.60;;
22711;SDS011;11523;50.390;8.072;2023-01-15T17:19:55;3.10;;;1.40;;
22711;SDS011;11523;50.390;8.072;2023-01-15T17:22:29;3.63;;;1.40;;
22711;SDS011;11523;50.390;8.072;2023-01-15T17:24:56;3.65;;;1.77;;
22711;SDS011;11523;50.390;8.072;2023-01-15T17:27:23;3.53;;;1.35;;
22711;SDS011;11523;50.390;8.072;2023-01-15T17:29:49;2.72;;;1.50;;
22711;SDS011;11523;50.390;8.072;2023-01-15T17:32:16;5.75;;;1.70;;
22711;SDS011;11523;50.390;8.072;2023-01-15T17:34:42;4.13;;;1.50;;
22711;SDS011;11523;50.390;8.072;2023-01-15T17:37:08;4.13;;;1.40;;
22711;SDS011;11523;50.390;8.072;2023-01-15T17:39:34;5.72;;;1.20;;
22711;SDS011;11523;50.390;8.072;2023-01-15T17:42:00;4.55;;;1.38;;
22711;SDS011;11523;50.390;8.072;2023-01-15T17:44:26;4.20;;;1.70;;
22711;SDS011;11523;50.390;8.072;2023-01-15T17:46:52;6.00;;;1.30;;
22711;SDS011;11523;50.390;8.072;2023-01-15T17:49:18;8.55;;;1.95;;
22711;SDS011;11523;50.390;8.072;2023-01-15T17:51:44;3.65;;;1.42;;
22711;SDS011;11523;50.390;8.072;2023-01-15T17:54:10;4.05;;;1.48;;
22711;SDS011;11523;50.390;8.072;2023-01-15T17:56:56;5.18;;;1.52;;
22711;SDS011;11523;50.390;8.072;2023-01-15T17:59:40;3.75;;;1.80;;
22711;SDS011;11523;50.390;8.072;2023-01-15T18:02:25;4.43;;;0.93;;
22711;SDS011;11523;50.390;8.072;2023-01-15T18:05:09;4.63;;;1.05;;
22711;SDS011;11523;50.390;8.072;2023-01-15T18:07:49;4.53;;;1.38;;
22711;SDS011;11523;50.390;8.072;2023-01-15T18:10:16;2.90;;;1.33;;
22711;SDS011;11523;50.390;8.072;2023-01-15T18:12:44;3.72;;;1.30;;
22711;SDS011;11523;50.390;8.072;2023-01-15T18:15:10;3.83;;;1.30;;
22711;SDS011;11523;50.390;8.072;2023-01-15T18:17:36;5.57;;;1.80;;
22711;SDS011;11523;50.390;8.072;2023-01-15T18:20:03;4.65;;;1.73;;
22711;SDS011;11523;50.390;8.072;2023-01-15T18:22:29;5.63;;;1.73;;
22711;SDS011;11523;50.390;8.072;2023-01-15T18:24:55;4.43;;;1.90;;
22711;SDS011;11523;50.390;8.072;2023-01-15T18:27:21;4.30;;;1.70;;
22711;SDS011;11523;50.390;8.072;2023-01-15T18:29:51;4.15;;;1.80;;
22711;SDS011;11523;50.390;8.072;2023-01-15T18:32:17;3.83;;;1.58;;
22711;SDS011;11523;50.390;8.072;2023-01-15T18:34:44;8.40;;;2.10;;
22711;SDS011;11523;50.390;8.072;2023-01-15T18:37:10;4.45;;;1.85;;
22711;SDS011;11523;50.390;8.072;2023-01-15T18:39:37;5.68;;;1.70;;
22711;SDS011;11523;50.390;8.072;2023-01-15T18:42:03;2.75;;;1.60;;
22711;SDS011;11523;50.390;8.072;2023-01-15T18:44:29;4.13;;;1.67;;
22711;SDS011;11523;50.390;8.072;2023-01-15T18:47:14;2.45;;;1.25;;
22711;SDS011;11523;50.390;8.072;2023-01-15T18:49:41;1.77;;;0.77;;
22711;SDS011;11523;50.390;8.072;2023-01-15T18:52:08;6.30;;;1.73;;
22711;SDS011;11523;50.390;8.072;2023-01-15T18:54:53;3.00;;;1.50;;
22711;SDS011;11523;50.390;8.072;2023-01-15T18:57:20;3.13;;;1.38;;
22711;SDS011;11523;50.390;8.072;2023-01-15T18:59:46;5.30;;;1.42;;
22711;SDS011;11523;50.390;8.072;2023-01-15T19:02:12;4.95;;;1.70;;
22711;SDS011;11523;50.390;8.072;2023-01-15T19:04:38;6.95;;;1.80;;
22711;SDS011;11523;50.390;8.072;2023-01-15T19:07:04;3.97;;;1.52;;
22711;SDS011;11523;50.390;8.072;2023-01-15T19:09:30;4.88;;;1.90;;
22711;SDS011;11523;50.390;8.072;2023-01-15T19:11:56;4.50;;;1.38;;
22711;SDS011;11523;50.390;8.072;2023-01-15T19:14:22;4.55;;;1.83;;
22711;SDS011;11523;50.390;8.072;2023-01-15T19:17:12;3.10;;;1.27;;
22711;SDS011;11523;50.390;8.072;2023-01-15T19:19:57;3.03;;;1.38;;
22711;SDS011;11523;50.390;8.072;2023-01-15T19:22:23;5.95;;;1.70;;
22711;SDS011;11523;50.390;8.072;2023-01-15T19:25:08;5.45;;;1.85;;
22711;SDS011;11523;50.390;8.072;2023-01-15T19:27:34;3.72;;;1.17;;
22711;SDS011;11523;50.390;8.072;2023-01-15T19:30:00;5.38;;;1.48;;
22711;SDS011;11523;50.390;8.072;2023-01-15T19:32:26;3.53;;;1.30;;
22711;SDS011;11523;50.390;8.072;2023-01-15T19:34:52;5.95;;;1.30;;
22711;SDS011;11523;50.390;8.072;2023-01-15T19:37:18;3.67;;;1.20;;
22711;SDS011;11523;50.390;8.072;2023-01-15T19:39:44;3.50;;;1.63;;
22711;SDS011;11523;50.390;8.072;2023-01-15T19:42:16;3.13;;;1.35;;
22711;SDS011;11523;50.390;8.072;2023-01-15T19:45:00;3.60;;;1.40;;
22711;SDS011;11523;50.390;8.072;2023-01-15T19:47:45;3.88;;;1.70;;
22711;SDS011;11523;50.390;8.072;2023-01-15T19:50:34;5.50;;;1.80;;
22711;SDS011;11523;50.390;8.072;2023-01-15T19:53:01;4.70;;;1.70;;
22711;SDS011;11523;50.390;8.072;2023-01-15T19:55:28;5.15;;;1.30;;
22711;SDS011;11523;50.390;8.072;2023-01-15T19:57:55;3.42;;;1.75;;
22711;SDS011;11523;50.390;8.072;2023-01-15T20:00:22;5.88;;;1.80;;
22711;SDS011;11523;50.390;8.072;2023-01-15T20:02:48;5.07;;;1.45;;
22711;SDS011;11523;50.390;8.072;2023-01-15T20:05:14;2.47;;;1.60;;
22711;SDS011;11523;50.390;8.072;2023-01-15T20:07:40;4.43;;;1.90;;
22711;SDS011;11523;50.390;8.072;2023-01-15T20:10:08;3.50;;;1.80;;
22711;SDS011;11523;50.390;8.072;2023-01-15T20:12:34;5.47;;;2.00;;
22711;SDS011;11523;50.390;8.072;2023-01-15T20:15:19;4.53;;;1.60;;
22711;SDS011;11523;50.390;8.072;2023-01-15T20:17:45;3.13;;;1.83;;
22711;SDS011;11523;50.390;8.072;2023-01-15T20:20:11;6.00;;;1.95;;
22711;SDS011;11523;50.390;8.072;2023-01-15T20:22:37;5.68;;;1.88;;